createdAt,value
2017-07-12T00:00:02.866Z,0
2017-07-12T00:05:02.557Z,0
2017-07-12T00:10:02.950Z,0
2017-07-12T00:15:02.361Z,0
2017-07-12T00:20:02.647Z,0
2017-07-12T00:25:03.257Z,0
2017-07-12T00:30:02.542Z,0
2017-07-12T00:35:02.824Z,0
2017-07-12T00:40:02.503Z,0
2017-07-12T00:45:02.982Z,0
2017-07-12T00:50:03.278Z,0
2017-07-12T00:55:02.680Z,0
2017-07-12T01:00:03.236Z,0
2017-07-12T01:05:02.670Z,0
2017-07-12T01:10:03.187Z,0
2017-07-12T01:15:02.671Z,0
2017-07-12T01:20:03.207Z,0
2017-07-12T01:25:02.670Z,0
2017-07-12T01:30:03.160Z,0
2017-07-12T01:35:02.453Z,0
2017-07-12T01:40:02.927Z,0
2017-07-12T01:45:02.361Z,0
2017-07-12T01:50:02.745Z,0
2017-07-12T01:55:03.227Z,0
2017-07-12T02:00:02.449Z,0
2017-07-12T02:05:02.867Z,0
2017-07-12T02:10:02.411Z,0
2017-07-12T02:15:02.919Z,0
2017-07-12T02:20:02.381Z,0
2017-07-12T02:25:02.954Z,0
2017-07-12T02:30:03.264Z,0
2017-07-12T02:35:02.575Z,0
2017-07-12T02:40:03.037Z,0
2017-07-12T02:45:02.550Z,0
2017-07-12T02:50:02.866Z,0
2017-07-12T02:55:02.339Z,0
2017-07-12T03:00:02.880Z,0
2017-07-12T03:05:03.235Z,0
2017-07-12T03:10:02.745Z,1
2017-07-12T03:15:03.208Z,5
2017-07-12T03:20:02.694Z,6
2017-07-12T03:25:03.004Z,6
2017-07-12T03:30:03.287Z,6
2017-07-12T03:35:02.554Z,10
2017-07-12T03:40:02.957Z,22
2017-07-12T03:45:03.288Z,24
2017-07-12T03:50:02.607Z,38
2017-07-12T03:55:02.925Z,46
2017-07-12T04:00:02.439Z,38
2017-07-12T04:05:02.908Z,70
2017-07-12T04:10:03.306Z,62
2017-07-12T04:15:02.580Z,63
2017-07-12T04:20:02.937Z,94
2017-07-12T04:25:03.268Z,93
2017-07-12T04:30:03.220Z,250
2017-07-12T04:35:02.580Z,521
2017-07-12T04:40:03.101Z,710
2017-07-12T04:45:02.429Z,808
2017-07-12T04:50:03.207Z,670
2017-07-12T04:55:02.659Z,930
2017-07-12T05:00:03.027Z,957
2017-07-12T05:05:03.332Z,1000
2017-07-12T05:10:02.855Z,1000
2017-07-12T05:15:03.302Z,710
2017-07-12T05:20:02.634Z,681
2017-07-12T05:25:03.108Z,905
2017-07-12T05:30:02.576Z,1000
2017-07-12T05:35:03.019Z,1000
2017-07-12T05:40:02.457Z,1000
2017-07-12T05:45:02.866Z,1000
2017-07-12T05:50:02.453Z,1000
2017-07-12T05:55:02.888Z,1000
2017-07-12T06:00:02.357Z,1000
2017-07-12T06:05:02.680Z,1000
2017-07-12T06:10:03.220Z,1000
2017-07-12T06:15:02.694Z,1000
2017-07-12T06:20:03.136Z,862
2017-07-12T06:25:02.473Z,776
2017-07-12T06:30:02.853Z,963
2017-07-12T06:35:03.265Z,1000
2017-07-12T06:40:02.743Z,1000
2017-07-12T06:45:03.101Z,852
2017-07-12T06:50:02.414Z,802
2017-07-12T06:55:02.899Z,927
2017-07-12T07:00:03.237Z,1000
2017-07-12T07:05:02.729Z,2000
2017-07-12T07:10:03.289Z,2000
2017-07-12T07:15:02.555Z,3000
2017-07-12T07:20:03.013Z,3000
2017-07-12T07:25:03.426Z,2000
2017-07-12T07:30:02.904Z,4000
2017-07-12T07:35:02.390Z,6000
2017-07-12T07:40:02.908Z,8000
2017-07-12T07:45:03.257Z,5000
2017-07-12T07:50:02.759Z,3000
2017-07-12T07:55:03.180Z,2000
2017-07-12T08:00:02.481Z,2000
2017-07-12T08:05:02.813Z,2000
2017-07-12T08:10:03.318Z,4000
2017-07-12T08:15:02.791Z,5000
2017-07-12T08:20:03.229Z,5000
2017-07-12T08:25:02.677Z,5000
2017-07-12T08:30:02.999Z,5000
2017-07-12T08:35:03.301Z,3000
2017-07-12T08:40:02.638Z,2000
2017-07-12T08:45:03.146Z,1000
2017-07-12T08:50:02.574Z,3000
2017-07-12T08:55:02.974Z,3000
2017-07-12T09:00:02.409Z,2000
2017-07-12T09:05:02.903Z,1000
2017-07-12T09:10:02.356Z,2000
2017-07-12T09:15:02.827Z,2000
2017-07-12T09:20:02.382Z,3000
2017-07-12T09:35:02.910Z,6000
2017-07-12T09:40:02.624Z,8000
2017-07-12T09:45:02.954Z,3000
2017-07-12T09:50:03.219Z,2000
2017-07-12T09:55:02.441Z,3000
2017-07-12T10:00:02.715Z,4000
2017-07-12T10:05:03.176Z,5000
2017-07-12T10:10:02.515Z,4000
2017-07-12T10:15:02.908Z,3000
2017-07-12T10:20:02.424Z,5000
2017-07-12T10:25:02.895Z,3000
2017-07-12T10:30:03.278Z,2000
2017-07-12T10:35:02.677Z,3000
2017-07-12T10:40:03.219Z,697
2017-07-12T10:45:02.629Z,1000
2017-07-12T10:50:03.222Z,2000
2017-07-12T10:55:02.653Z,2000
2017-07-12T11:00:02.983Z,3000
2017-07-12T11:05:02.546Z,3000
2017-07-12T11:10:03.101Z,3000
2017-07-12T11:15:02.546Z,3000
2017-07-12T11:20:03.036Z,3000
2017-07-12T11:25:02.330Z,3000
2017-07-12T11:30:02.611Z,3000
2017-07-12T11:35:03.084Z,2000
2017-07-12T11:40:02.586Z,1000
2017-07-12T11:45:03.056Z,2000
2017-07-12T11:50:02.603Z,2000
2017-07-12T11:55:02.940Z,2000
2017-07-12T12:00:02.461Z,2000
2017-07-12T12:05:03.007Z,2000
2017-07-12T12:10:02.558Z,2000
2017-07-12T12:15:03.102Z,2000
2017-07-12T12:20:02.434Z,3000
2017-07-12T12:25:02.744Z,3000
2017-07-12T12:30:03.183Z,3000
2017-07-12T12:35:02.643Z,3000
2017-07-12T12:40:03.158Z,4000
2017-07-12T12:45:02.628Z,5000
2017-07-12T12:50:03.108Z,3000
2017-07-12T12:55:02.751Z,3000
2017-07-12T13:00:03.237Z,12000
2017-07-12T13:05:02.955Z,12000
2017-07-12T13:10:02.576Z,5000
2017-07-12T13:15:02.994Z,5000
2017-07-12T13:20:02.499Z,3000
2017-07-12T13:25:02.903Z,3000
2017-07-12T13:30:02.560Z,2000
2017-07-12T13:35:03.197Z,4000
2017-07-12T13:40:02.511Z,7000
2017-07-12T13:45:02.988Z,8000
2017-07-12T13:50:04.276Z,5000
2017-07-12T13:55:02.523Z,2000
2017-07-12T14:00:03.142Z,3000
2017-07-12T14:05:02.534Z,3000
2017-07-12T14:10:03.291Z,11000
2017-07-12T14:15:02.635Z,29000
2017-07-12T14:20:03.094Z,25000
2017-07-12T14:25:02.741Z,13000
2017-07-12T14:30:03.424Z,7000
2017-07-12T14:35:02.795Z,16000
2017-07-12T14:40:02.539Z,4000
2017-07-12T14:45:03.324Z,1000
2017-07-12T14:50:02.871Z,1000
2017-07-12T14:55:02.520Z,1000
2017-07-12T15:00:03.213Z,2000
2017-07-12T15:05:02.692Z,3000
2017-07-12T15:10:03.231Z,3000
2017-07-12T15:15:02.520Z,6000
2017-07-12T15:20:03.029Z,12000
2017-07-12T15:25:02.662Z,9000
2017-07-12T15:30:03.322Z,3000
2017-07-12T15:35:02.974Z,4000
2017-07-12T15:40:02.493Z,8000
2017-07-12T15:45:02.991Z,20000
2017-07-12T15:50:02.682Z,20000
2017-07-12T15:55:03.162Z,24000
2017-07-12T16:00:02.636Z,9000
2017-07-12T16:05:03.156Z,6000
2017-07-12T16:10:02.678Z,23000
2017-07-12T16:15:03.119Z,7000
2017-07-12T16:20:02.635Z,3000
2017-07-12T16:25:03.237Z,18000
2017-07-12T16:30:02.517Z,14000
2017-07-12T16:35:03.212Z,6000
2017-07-12T16:40:02.765Z,17000
2017-07-12T16:45:03.276Z,18000
2017-07-12T16:50:02.715Z,4000
2017-07-12T16:55:03.357Z,3000
2017-07-12T17:00:02.656Z,5000
2017-07-12T17:05:03.276Z,13000
2017-07-12T17:10:02.643Z,5000
2017-07-12T17:15:03.286Z,2000
2017-07-12T17:20:02.736Z,3000
2017-07-12T17:25:03.423Z,6000
2017-07-12T17:30:02.867Z,3000
2017-07-12T17:35:02.428Z,2000
2017-07-12T17:40:03.002Z,2000
2017-07-12T17:45:02.853Z,2000
2017-07-12T17:50:02.546Z,9000
2017-07-12T17:55:03.390Z,9000
2017-07-12T18:00:02.747Z,9000
2017-07-12T18:05:02.320Z,7000
2017-07-12T18:10:02.986Z,7000
2017-07-12T18:15:02.710Z,6000
2017-07-12T18:20:03.225Z,6000
2017-07-12T18:25:02.515Z,6000
2017-07-12T18:30:03.102Z,4000
2017-07-12T18:35:02.622Z,5000
2017-07-12T18:40:03.358Z,4000
2017-07-12T18:45:03.228Z,3000
2017-07-12T18:50:02.582Z,2000
2017-07-12T18:55:03.056Z,2000
2017-07-12T19:00:02.802Z,1000
2017-07-12T19:05:02.469Z,1000
2017-07-12T19:10:02.970Z,1000
2017-07-12T19:15:02.566Z,755
2017-07-12T19:20:03.181Z,638
2017-07-12T19:25:02.798Z,507
2017-07-12T19:30:03.257Z,431
2017-07-12T19:35:02.727Z,363
2017-07-12T19:40:03.377Z,305
2017-07-12T19:45:02.893Z,225
2017-07-12T19:50:02.511Z,127
2017-07-12T19:55:03.009Z,70
2017-07-12T20:00:02.450Z,66
2017-07-12T20:05:03.176Z,56
2017-07-12T20:10:02.556Z,43
2017-07-12T20:15:03.107Z,31
2017-07-12T20:20:02.573Z,20
2017-07-12T20:25:03.152Z,11
2017-07-12T20:30:02.467Z,6
2017-07-12T20:35:03.016Z,2
2017-07-12T20:40:02.564Z,0
2017-07-12T20:45:03.080Z,0
2017-07-12T20:50:02.644Z,0
2017-07-12T20:55:03.152Z,0
2017-07-12T21:00:02.962Z,0
2017-07-12T21:05:02.617Z,0
2017-07-12T21:10:03.319Z,0
2017-07-12T21:15:02.946Z,0
2017-07-12T21:20:02.412Z,0
2017-07-12T21:25:03.095Z,0
2017-07-12T21:30:02.915Z,0
2017-07-12T21:35:02.409Z,0
2017-07-12T21:40:02.809Z,0
2017-07-12T21:45:03.087Z,0
2017-07-12T21:50:02.468Z,0
2017-07-12T21:55:02.925Z,0
2017-07-12T22:00:02.711Z,0
2017-07-12T22:05:02.623Z,0
2017-07-12T22:10:02.583Z,0
2017-07-12T22:15:02.410Z,0
2017-07-12T22:20:03.318Z,0
2017-07-12T22:25:03.098Z,0
2017-07-12T22:30:02.896Z,0
2017-07-12T22:35:02.764Z,0
2017-07-12T22:40:02.734Z,0
2017-07-12T22:45:02.596Z,0
2017-07-12T22:50:02.526Z,0
2017-07-12T22:55:02.429Z,0
2017-07-12T23:00:03.551Z,0
2017-07-12T23:05:02.340Z,0
2017-07-12T23:10:03.327Z,0
2017-07-12T23:15:03.332Z,0
2017-07-12T23:20:03.232Z,0
2017-07-12T23:25:03.275Z,0
2017-07-12T23:30:03.176Z,0
2017-07-12T23:35:03.042Z,0
2017-07-12T23:40:03.286Z,0
2017-07-12T23:45:03.254Z,0
2017-07-12T23:50:03.161Z,0
2017-07-12T23:55:03.017Z,0
